sensor_id;sensor_type;location;lat;lon;timestamp;P1;durP1;ratioP1;P2;durP2;ratioP2
3099;SDS011;1560;52.746;13.474;2023-08-20T00:01:31;18.00;;;16.20;;
3099;SDS011;1560;52.746;13.474;2023-08-20T00:06:37;17.47;;;15.07;;
3099;SDS011;1560;52.746;13.474;2023-08-20T00:11:44;18.07;;;15.63;;
3099;SDS011;1560;52.746;13.474;2023-08-20T00:14:14;19.90;;;16.70;;
3099;SDS011;1560;52.746;13.474;2023-08-20T00:16:46;19.17;;;16.20;;
3099;SDS011;1560;52.746;13.474;2023-08-20T00:19:16;19.10;;;16.17;;
3099;SDS011;1560;52.746;13.474;2023-08-20T00:21:45;21.17;;;17.00;;
3099;SDS011;1560;52.746;13.474;2023-08-20T00:24:14;18.43;;;14.53;;
3099;SDS011;1560;52.746;13.474;2023-08-20T00:26:54;18.53;;;16.70;;
3099;SDS011;1560;52.746;13.474;2023-08-20T00:29:22;19.87;;;17.23;;
3099;SDS011;1560;52.746;13.474;2023-08-20T00:31:51;19.97;;;16.47;;
3099;SDS011;1560;52.746;13.474;2023-08-20T00:34:20;19.10;;;16.77;;
3099;SDS011;1560;52.746;13.474;2023-08-20T00:36:48;19.50;;;15.80;;
3099;SDS011;1560;52.746;13.474;2023-08-20T00:41:53;20.00;;;16.70;;
3099;SDS011;1560;52.746;13.474;2023-08-20T00:44:21;15.87;;;14.27;;
3099;SDS011;1560;52.746;13.474;2023-08-20T00:49:27;20.20;;;17.20;;
3099;SDS011;1560;52.746;13.474;2023-08-20T00:51:56;19.57;;;17.47;;
3099;SDS011;1560;52.746;13.474;2023-08-20T00:54:25;20.00;;;16.37;;
3099;SDS011;1560;52.746;13.474;2023-08-20T00:56:55;18.57;;;15.33;;
3099;SDS011;1560;52.746;13.474;2023-08-20T00:59:32;20.57;;;17.60;;
3099;SDS011;1560;52.746;13.474;2023-08-20T01:02:01;20.27;;;18.10;;
3099;SDS011;1560;52.746;13.474;2023-08-20T01:04:30;17.90;;;15.97;;
3099;SDS011;1560;52.746;13.474;2023-08-20T01:07:01;18.97;;;15.47;;
3099;SDS011;1560;52.746;13.474;2023-08-20T01:09:41;18.27;;;16.27;;
3099;SDS011;1560;52.746;13.474;2023-08-20T01:12:12;18.77;;;16.40;;
3099;SDS011;1560;52.746;13.474;2023-08-20T01:14:43;18.03;;;16.13;;
3099;SDS011;1560;52.746;13.474;2023-08-20T01:17:12;16.97;;;15.17;;
3099;SDS011;1560;52.746;13.474;2023-08-20T01:19:49;18.63;;;15.50;;
3099;SDS011;1560;52.746;13.474;2023-08-20T01:22:27;22.97;;;18.80;;
3099;SDS011;1560;52.746;13.474;2023-08-20T01:25:03;19.17;;;17.13;;
3099;SDS011;1560;52.746;13.474;2023-08-20T01:27:43;20.30;;;17.33;;
3099;SDS011;1560;52.746;13.474;2023-08-20T01:30:18;21.20;;;17.07;;
3099;SDS011;1560;52.746;13.474;2023-08-20T01:32:56;20.87;;;18.67;;
3099;SDS011;1560;52.746;13.474;2023-08-20T01:35:26;19.07;;;16.87;;
3099;SDS011;1560;52.746;13.474;2023-08-20T01:40:31;25.57;;;18.93;;
3099;SDS011;1560;52.746;13.474;2023-08-20T01:43:01;31.63;;;19.17;;
3099;SDS011;1560;52.746;13.474;2023-08-20T01:45:29;26.70;;;17.97;;
3099;SDS011;1560;52.746;13.474;2023-08-20T01:47:58;21.13;;;18.00;;
3099;SDS011;1560;52.746;13.474;2023-08-20T01:50:27;20.57;;;17.83;;
3099;SDS011;1560;52.746;13.474;2023-08-20T01:52:55;20.60;;;16.30;;
3099;SDS011;1560;52.746;13.474;2023-08-20T01:55:24;22.97;;;18.73;;
3099;SDS011;1560;52.746;13.474;2023-08-20T01:57:52;23.13;;;18.63;;
3099;SDS011;1560;52.746;13.474;2023-08-20T02:00:30;19.80;;;17.20;;
3099;SDS011;1560;52.746;13.474;2023-08-20T02:03:00;20.73;;;17.37;;
3099;SDS011;1560;52.746;13.474;2023-08-20T02:05:30;23.20;;;19.00;;
3099;SDS011;1560;52.746;13.474;2023-08-20T02:07:58;19.40;;;17.10;;
3099;SDS011;1560;52.746;13.474;2023-08-20T02:10:27;22.90;;;18.57;;
3099;SDS011;1560;52.746;13.474;2023-08-20T02:12:55;21.63;;;16.37;;
3099;SDS011;1560;52.746;13.474;2023-08-20T02:15:24;22.67;;;17.93;;
3099;SDS011;1560;52.746;13.474;2023-08-20T02:17:52;22.93;;;16.87;;
3099;SDS011;1560;52.746;13.474;2023-08-20T02:20:29;20.27;;;17.07;;
3099;SDS011;1560;52.746;13.474;2023-08-20T02:22:58;20.27;;;17.60;;
3099;SDS011;1560;52.746;13.474;2023-08-20T02:25:27;19.33;;;16.60;;
3099;SDS011;1560;52.746;13.474;2023-08-20T02:27:55;19.07;;;17.07;;
3099;SDS011;1560;52.746;13.474;2023-08-20T02:30:24;19.33;;;17.10;;
3099;SDS011;1560;52.746;13.474;2023-08-20T02:32:52;21.90;;;17.20;;
3099;SDS011;1560;52.746;13.474;2023-08-20T02:35:21;20.17;;;16.43;;
3099;SDS011;1560;52.746;13.474;2023-08-20T02:37:49;21.97;;;17.97;;
3099;SDS011;1560;52.746;13.474;2023-08-20T02:40:27;18.30;;;16.13;;
3099;SDS011;1560;52.746;13.474;2023-08-20T02:42:55;18.60;;;15.73;;
3099;SDS011;1560;52.746;13.474;2023-08-20T02:45:24;19.50;;;16.37;;
3099;SDS011;1560;52.746;13.474;2023-08-20T02:47:52;19.53;;;16.30;;
3099;SDS011;1560;52.746;13.474;2023-08-20T02:50:21;22.97;;;17.37;;
3099;SDS011;1560;52.746;13.474;2023-08-20T02:52:50;17.87;;;15.93;;
3099;SDS011;1560;52.746;13.474;2023-08-20T02:55:18;18.43;;;16.53;;
3099;SDS011;1560;52.746;13.474;2023-08-20T02:57:47;19.90;;;16.17;;
3099;SDS011;1560;52.746;13.474;2023-08-20T03:00:15;21.00;;;16.37;;
3099;SDS011;1560;52.746;13.474;2023-08-20T03:02:44;17.27;;;14.20;;
3099;SDS011;1560;52.746;13.474;2023-08-20T03:05:13;19.27;;;16.70;;
3099;SDS011;1560;52.746;13.474;2023-08-20T03:07:41;18.70;;;15.13;;
3099;SDS011;1560;52.746;13.474;2023-08-20T03:10:11;18.00;;;14.63;;
3099;SDS011;1560;52.746;13.474;2023-08-20T03:12:40;19.50;;;15.70;;
3099;SDS011;1560;52.746;13.474;2023-08-20T03:17:44;19.60;;;14.93;;
3099;SDS011;1560;52.746;13.474;2023-08-20T03:20:13;17.20;;;15.10;;
3099;SDS011;1560;52.746;13.474;2023-08-20T03:22:42;19.60;;;14.70;;
3099;SDS011;1560;52.746;13.474;2023-08-20T03:27:47;18.27;;;15.80;;
3099;SDS011;1560;52.746;13.474;2023-08-20T03:30:15;17.27;;;15.40;;
3099;SDS011;1560;52.746;13.474;2023-08-20T03:32:44;18.10;;;15.23;;
3099;SDS011;1560;52.746;13.474;2023-08-20T03:35:13;17.63;;;13.97;;
3099;SDS011;1560;52.746;13.474;2023-08-20T03:37:50;19.33;;;15.70;;
3099;SDS011;1560;52.746;13.474;2023-08-20T03:40:19;18.53;;;16.00;;
3099;SDS011;1560;52.746;13.474;2023-08-20T03:42:48;15.10;;;13.43;;
3099;SDS011;1560;52.746;13.474;2023-08-20T03:47:52;17.00;;;14.20;;
3099;SDS011;1560;52.746;13.474;2023-08-20T03:50:21;18.87;;;14.37;;
3099;SDS011;1560;52.746;13.474;2023-08-20T03:52:50;16.30;;;13.87;;
3099;SDS011;1560;52.746;13.474;2023-08-20T03:55:18;16.57;;;14.60;;
3099;SDS011;1560;52.746;13.474;2023-08-20T03:57:47;20.67;;;14.33;;
3099;SDS011;1560;52.746;13.474;2023-08-20T04:02:52;20.73;;;14.13;;
3099;SDS011;1560;52.746;13.474;2023-08-20T04:05:20;17.53;;;15.00;;
3099;SDS011;1560;52.746;13.474;2023-08-20T04:07:49;17.00;;;14.23;;
3099;SDS011;1560;52.746;13.474;2023-08-20T04:10:18;18.87;;;16.90;;
3099;SDS011;1560;52.746;13.474;2023-08-20T04:12:46;18.10;;;14.80;;
3099;SDS011;1560;52.746;13.474;2023-08-20T04:17:51;20.20;;;14.80;;
3099;SDS011;1560;52.746;13.474;2023-08-20T04:20:20;17.17;;;15.33;;
3099;SDS011;1560;52.746;13.474;2023-08-20T04:22:49;17.60;;;15.37;;
3099;SDS011;1560;52.746;13.474;2023-08-20T04:25:26;19.40;;;16.00;;
3099;SDS011;1560;52.746;13.474;2023-08-20T04:27:55;18.60;;;14.77;;
3099;SDS011;1560;52.746;13.474;2023-08-20T04:30:24;19.60;;;14.67;;
3099;SDS011;1560;52.746;13.474;2023-08-20T04:32:52;21.53;;;15.77;;
3099;SDS011;1560;52.746;13.474;2023-08-20T04:35:21;19.30;;;16.70;;
3099;SDS011;1560;52.746;13.474;2023-08-20T04:37:49;17.57;;;14.10;;
3099;SDS011;1560;52.746;13.474;2023-08-20T04:40:18;17.20;;;14.17;;
3099;SDS011;1560;52.746;13.474;2023-08-20T04:42:47;18.60;;;14.50;;
3099;SDS011;1560;52.746;13.474;2023-08-20T04:45:16;15.90;;;13.50;;
3099;SDS011;1560;52.746;13.474;2023-08-20T04:47:46;16.80;;;14.03;;
3099;SDS011;1560;52.746;13.474;2023-08-20T04:52:50;19.63;;;13.73;;
3099;SDS011;1560;52.746;13.474;2023-08-20T04:55:19;22.60;;;14.60;;
3099;SDS011;1560;52.746;13.474;2023-08-20T04:57:48;16.67;;;13.90;;
3099;SDS011;1560;52.746;13.474;2023-08-20T05:00:16;15.60;;;12.63;;
3099;SDS011;1560;52.746;13.474;2023-08-20T05:05:22;17.47;;;13.97;;
3099;SDS011;1560;52.746;13.474;2023-08-20T05:07:52;18.43;;;13.63;;
3099;SDS011;1560;52.746;13.474;2023-08-20T05:12:57;18.50;;;14.67;;
3099;SDS011;1560;52.746;13.474;2023-08-20T05:15:25;18.00;;;14.20;;
3099;SDS011;1560;52.746;13.474;2023-08-20T05:17:54;20.47;;;15.63;;
3099;SDS011;1560;52.746;13.474;2023-08-20T05:20:22;16.00;;;13.47;;
3099;SDS011;1560;52.746;13.474;2023-08-20T05:22:51;16.80;;;14.30;;
3099;SDS011;1560;52.746;13.474;2023-08-20T05:25:20;18.90;;;14.90;;
3099;SDS011;1560;52.746;13.474;2023-08-20T05:27:49;20.73;;;14.30;;
3099;SDS011;1560;52.746;13.474;2023-08-20T05:30:17;17.10;;;13.57;;
3099;SDS011;1560;52.746;13.474;2023-08-20T05:32:46;19.73;;;14.60;;
3099;SDS011;1560;52.746;13.474;2023-08-20T05:35:15;17.63;;;13.93;;
3099;SDS011;1560;52.746;13.474;2023-08-20T05:40:20;18.23;;;14.47;;
3099;SDS011;1560;52.746;13.474;2023-08-20T05:42:48;17.90;;;13.30;;
3099;SDS011;1560;52.746;13.474;2023-08-20T05:45:17;20.93;;;14.70;;
3099;SDS011;1560;52.746;13.474;2023-08-20T05:47:45;18.80;;;14.10;;
3099;SDS011;1560;52.746;13.474;2023-08-20T05:50:14;17.70;;;14.03;;
3099;SDS011;1560;52.746;13.474;2023-08-20T05:52:43;18.27;;;14.10;;
3099;SDS011;1560;52.746;13.474;2023-08-20T05:55:11;18.27;;;13.60;;
3099;SDS011;1560;52.746;13.474;2023-08-20T05:57:41;17.50;;;14.50;;
3099;SDS011;1560;52.746;13.474;2023-08-20T06:00:19;14.83;;;12.70;;
3099;SDS011;1560;52.746;13.474;2023-08-20T06:02:47;14.90;;;11.63;;
3099;SDS011;1560;52.746;13.474;2023-08-20T06:05:16;14.87;;;12.23;;
3099;SDS011;1560;52.746;13.474;2023-08-20T06:07:45;15.50;;;13.90;;
3099;SDS011;1560;52.746;13.474;2023-08-20T06:10:13;21.00;;;13.87;;
3099;SDS011;1560;52.746;13.474;2023-08-20T06:12:51;16.63;;;13.73;;
3099;SDS011;1560;52.746;13.474;2023-08-20T06:15:19;17.70;;;14.30;;
3099;SDS011;1560;52.746;13.474;2023-08-20T06:17:48;19.20;;;15.10;;
3099;SDS011;1560;52.746;13.474;2023-08-20T06:20:17;22.40;;;14.63;;
3099;SDS011;1560;52.746;13.474;2023-08-20T06:22:45;21.03;;;14.53;;
3099;SDS011;1560;52.746;13.474;2023-08-20T06:25:14;17.30;;;14.00;;
3099;SDS011;1560;52.746;13.474;2023-08-20T06:27:43;13.50;;;12.10;;
3099;SDS011;1560;52.746;13.474;2023-08-20T06:30:12;20.27;;;14.67;;
3099;SDS011;1560;52.746;13.474;2023-08-20T06:32:58;20.00;;;13.40;;
3099;SDS011;1560;52.746;13.474;2023-08-20T06:35:27;18.83;;;13.97;;
3099;SDS011;1560;52.746;13.474;2023-08-20T06:37:56;15.13;;;13.00;;
3099;SDS011;1560;52.746;13.474;2023-08-20T06:40:24;17.27;;;13.47;;
3099;SDS011;1560;52.746;13.474;2023-08-20T06:42:53;18.27;;;14.10;;
3099;SDS011;1560;52.746;13.474;2023-08-20T06:45:21;21.30;;;13.50;;
3099;SDS011;1560;52.746;13.474;2023-08-20T06:47:50;17.60;;;14.50;;
3099;SDS011;1560;52.746;13.474;2023-08-20T06:50:19;16.23;;;13.97;;
3099;SDS011;1560;52.746;13.474;2023-08-20T06:52:47;15.90;;;12.40;;
3099;SDS011;1560;52.746;13.474;2023-08-20T06:55:24;14.87;;;12.97;;
3099;SDS011;1560;52.746;13.474;2023-08-20T06:57:53;15.20;;;11.57;;
3099;SDS011;1560;52.746;13.474;2023-08-20T07:00:22;16.80;;;12.97;;
3099;SDS011;1560;52.746;13.474;2023-08-20T07:02:50;14.30;;;12.47;;
3099;SDS011;1560;52.746;13.474;2023-08-20T07:05:19;14.70;;;12.47;;
3099;SDS011;1560;52.746;13.474;2023-08-20T07:07:48;14.93;;;12.00;;
3099;SDS011;1560;52.746;13.474;2023-08-20T07:10:25;14.20;;;12.43;;
3099;SDS011;1560;52.746;13.474;2023-08-20T07:12:54;19.30;;;14.57;;
3099;SDS011;1560;52.746;13.474;2023-08-20T07:15:22;16.33;;;13.13;;
3099;SDS011;1560;52.746;13.474;2023-08-20T07:20:27;21.50;;;14.37;;
3099;SDS011;1560;52.746;13.474;2023-08-20T07:22:56;15.73;;;12.57;;
3099;SDS011;1560;52.746;13.474;2023-08-20T07:25:24;17.93;;;13.00;;
3099;SDS011;1560;52.746;13.474;2023-08-20T07:30:29;17.90;;;14.13;;
3099;SDS011;1560;52.746;13.474;2023-08-20T07:32:58;15.90;;;13.20;;
3099;SDS011;1560;52.746;13.474;2023-08-20T07:35:27;17.93;;;13.90;;
3099;SDS011;1560;52.746;13.474;2023-08-20T07:37:56;16.60;;;12.10;;
3099;SDS011;1560;52.746;13.474;2023-08-20T07:40:24;13.90;;;11.50;;
3099;SDS011;1560;52.746;13.474;2023-08-20T07:42:53;18.47;;;12.80;;
3099;SDS011;1560;52.746;13.474;2023-08-20T07:45:22;15.00;;;12.30;;
3099;SDS011;1560;52.746;13.474;2023-08-20T07:47:51;15.93;;;12.00;;
3099;SDS011;1560;52.746;13.474;2023-08-20T07:50:19;19.50;;;14.37;;
3099;SDS011;1560;52.746;13.474;2023-08-20T07:52:48;15.23;;;11.70;;
3099;SDS011;1560;52.746;13.474;2023-08-20T07:55:25;15.87;;;13.90;;
3099;SDS011;1560;52.746;13.474;2023-08-20T07:57:54;16.80;;;13.33;;
3099;SDS011;1560;52.746;13.474;2023-08-20T08:00:31;14.87;;;12.17;;
3099;SDS011;1560;52.746;13.474;2023-08-20T08:02:59;18.77;;;14.30;;
3099;SDS011;1560;52.746;13.474;2023-08-20T08:05:28;17.23;;;13.97;;
3099;SDS011;1560;52.746;13.474;2023-08-20T08:07:57;17.87;;;13.50;;
3099;SDS011;1560;52.746;13.474;2023-08-20T08:10:26;17.40;;;12.90;;
3099;SDS011;1560;52.746;13.474;2023-08-20T08:12:54;16.00;;;12.30;;
3099;SDS011;1560;52.746;13.474;2023-08-20T08:17:59;17.23;;;12.90;;
3099;SDS011;1560;52.746;13.474;2023-08-20T08:20:27;15.47;;;12.40;;
3099;SDS011;1560;52.746;13.474;2023-08-20T08:22:56;17.50;;;14.27;;
3099;SDS011;1560;52.746;13.474;2023-08-20T08:25:25;16.33;;;12.80;;
3099;SDS011;1560;52.746;13.474;2023-08-20T08:27:53;14.90;;;12.93;;
3099;SDS011;1560;52.746;13.474;2023-08-20T08:30:22;19.60;;;15.50;;
3099;SDS011;1560;52.746;13.474;2023-08-20T08:35:27;14.97;;;12.27;;
3099;SDS011;1560;52.746;13.474;2023-08-20T08:37:56;19.17;;;14.00;;
3099;SDS011;1560;52.746;13.474;2023-08-20T08:40:25;17.70;;;14.27;;
3099;SDS011;1560;52.746;13.474;2023-08-20T08:42:57;17.43;;;14.13;;
3099;SDS011;1560;52.746;13.474;2023-08-20T08:45:26;17.20;;;14.37;;
3099;SDS011;1560;52.746;13.474;2023-08-20T08:47:55;23.37;;;14.30;;
3099;SDS011;1560;52.746;13.474;2023-08-20T08:53:00;18.37;;;14.00;;
3099;SDS011;1560;52.746;13.474;2023-08-20T08:55:29;20.10;;;13.90;;
3099;SDS011;1560;52.746;13.474;2023-08-20T08:57:58;14.87;;;12.73;;
3099;SDS011;1560;52.746;13.474;2023-08-20T09:00:26;17.83;;;14.60;;
3099;SDS011;1560;52.746;13.474;2023-08-20T09:02:57;14.97;;;12.33;;
3099;SDS011;1560;52.746;13.474;2023-08-20T09:05:26;17.80;;;13.03;;
3099;SDS011;1560;52.746;13.474;2023-08-20T09:07:55;16.83;;;13.40;;
3099;SDS011;1560;52.746;13.474;2023-08-20T09:10:26;16.30;;;12.27;;
3099;SDS011;1560;52.746;13.474;2023-08-20T09:12:54;16.70;;;13.70;;
3099;SDS011;1560;52.746;13.474;2023-08-20T09:18:08;17.47;;;12.93;;
3099;SDS011;1560;52.746;13.474;2023-08-20T09:20:37;14.77;;;12.17;;
3099;SDS011;1560;52.746;13.474;2023-08-20T09:23:11;18.63;;;12.97;;
3099;SDS011;1560;52.746;13.474;2023-08-20T09:25:53;16.17;;;12.27;;
3099;SDS011;1560;52.746;13.474;2023-08-20T09:28:21;14.80;;;11.70;;
3099;SDS011;1560;52.746;13.474;2023-08-20T09:33:31;14.13;;;12.27;;
3099;SDS011;1560;52.746;13.474;2023-08-20T09:36:00;15.97;;;12.77;;
3099;SDS011;1560;52.746;13.474;2023-08-20T09:38:36;15.60;;;12.37;;
3099;SDS011;1560;52.746;13.474;2023-08-20T09:41:12;15.90;;;11.87;;
3099;SDS011;1560;52.746;13.474;2023-08-20T09:43:41;15.33;;;11.13;;
3099;SDS011;1560;52.746;13.474;2023-08-20T09:46:12;14.23;;;11.73;;
3099;SDS011;1560;52.746;13.474;2023-08-20T09:48:45;14.83;;;11.60;;
3099;SDS011;1560;52.746;13.474;2023-08-20T09:51:18;13.33;;;11.47;;
3099;SDS011;1560;52.746;13.474;2023-08-20T09:53:50;12.47;;;11.17;;
3099;SDS011;1560;52.746;13.474;2023-08-20T09:56:21;16.83;;;12.50;;
3099;SDS011;1560;52.746;13.474;2023-08-20T09:58:51;12.20;;;10.23;;
3099;SDS011;1560;52.746;13.474;2023-08-20T10:01:22;12.03;;;10.73;;
3099;SDS011;1560;52.746;13.474;2023-08-20T10:03:52;13.07;;;11.67;;
3099;SDS011;1560;52.746;13.474;2023-08-20T10:06:21;12.60;;;11.27;;
3099;SDS011;1560;52.746;13.474;2023-08-20T10:11:26;15.47;;;10.80;;
3099;SDS011;1560;52.746;13.474;2023-08-20T10:13:54;12.53;;;10.53;;
3099;SDS011;1560;52.746;13.474;2023-08-20T10:16:23;14.27;;;11.10;;
3099;SDS011;1560;52.746;13.474;2023-08-20T10:18:54;10.60;;;9.50;;
3099;SDS011;1560;52.746;13.474;2023-08-20T10:21:24;11.87;;;10.60;;
3099;SDS011;1560;52.746;13.474;2023-08-20T10:23:54;13.57;;;10.50;;
3099;SDS011;1560;52.746;13.474;2023-08-20T10:26:23;13.70;;;10.37;;
3099;SDS011;1560;52.746;13.474;2023-08-20T10:28:52;9.90;;;8.90;;
3099;SDS011;1560;52.746;13.474;2023-08-20T10:31:45;10.20;;;9.20;;
3099;SDS011;1560;52.746;13.474;2023-08-20T10:34:14;12.60;;;9.50;;
3099;SDS011;1560;52.746;13.474;2023-08-20T10:39:27;8.70;;;7.80;;
3099;SDS011;1560;52.746;13.474;2023-08-20T10:42:08;10.97;;;8.97;;
3099;SDS011;1560;52.746;13.474;2023-08-20T10:47:42;8.47;;;7.67;;
3099;SDS011;1560;52.746;13.474;2023-08-20T10:50:12;10.20;;;7.83;;
3099;SDS011;1560;52.746;13.474;2023-08-20T10:52:47;9.80;;;7.83;;
3099;SDS011;1560;52.746;13.474;2023-08-20T10:55:25;8.93;;;7.50;;
3099;SDS011;1560;52.746;13.474;2023-08-20T11:00:33;10.90;;;7.17;;
3099;SDS011;1560;52.746;13.474;2023-08-20T11:03:02;8.20;;;7.00;;
3099;SDS011;1560;52.746;13.474;2023-08-20T11:05:39;8.27;;;6.77;;
3099;SDS011;1560;52.746;13.474;2023-08-20T11:10:45;6.80;;;5.17;;
3099;SDS011;1560;52.746;13.474;2023-08-20T11:13:14;5.00;;;4.53;;
3099;SDS011;1560;52.746;13.474;2023-08-20T11:15:42;6.03;;;4.67;;
3099;SDS011;1560;52.746;13.474;2023-08-20T11:18:12;5.50;;;4.83;;
3099;SDS011;1560;52.746;13.474;2023-08-20T11:20:41;4.10;;;3.37;;
3099;SDS011;1560;52.746;13.474;2023-08-20T11:23:09;5.60;;;5.10;;
3099;SDS011;1560;52.746;13.474;2023-08-20T11:25:41;4.30;;;3.90;;
3099;SDS011;1560;52.746;13.474;2023-08-20T11:28:18;5.43;;;3.73;;
3099;SDS011;1560;52.746;13.474;2023-08-20T11:30:47;3.63;;;3.03;;
3099;SDS011;1560;52.746;13.474;2023-08-20T11:35:52;4.00;;;3.10;;
3099;SDS011;1560;52.746;13.474;2023-08-20T11:38:22;3.50;;;2.97;;
3099;SDS011;1560;52.746;13.474;2023-08-20T11:40:52;4.10;;;3.27;;
3099;SDS011;1560;52.746;13.474;2023-08-20T11:43:21;4.77;;;3.40;;
3099;SDS011;1560;52.746;13.474;2023-08-20T11:45:50;6.60;;;2.90;;
3099;SDS011;1560;52.746;13.474;2023-08-20T11:48:27;5.43;;;3.80;;
3099;SDS011;1560;52.746;13.474;2023-08-20T11:50:57;3.10;;;2.80;;
3099;SDS011;1560;52.746;13.474;2023-08-20T11:53:34;4.03;;;3.63;;
3099;SDS011;1560;52.746;13.474;2023-08-20T11:56:03;3.93;;;3.57;;
3099;SDS011;1560;52.746;13.474;2023-08-20T11:58:31;4.93;;;4.07;;
3099;SDS011;1560;52.746;13.474;2023-08-20T12:03:37;3.80;;;3.13;;
3099;SDS011;1560;52.746;13.474;2023-08-20T12:06:17;3.90;;;3.43;;
3099;SDS011;1560;52.746;13.474;2023-08-20T12:08:47;4.13;;;3.73;;
3099;SDS011;1560;52.746;13.474;2023-08-20T12:11:15;3.77;;;3.23;;
3099;SDS011;1560;52.746;13.474;2023-08-20T12:13:44;4.00;;;3.07;;
3099;SDS011;1560;52.746;13.474;2023-08-20T12:16:14;5.10;;;3.30;;
3099;SDS011;1560;52.746;13.474;2023-08-20T12:18:43;4.03;;;2.77;;
3099;SDS011;1560;52.746;13.474;2023-08-20T12:21:13;3.83;;;3.00;;
3099;SDS011;1560;52.746;13.474;2023-08-20T12:23:50;3.63;;;2.47;;
3099;SDS011;1560;52.746;13.474;2023-08-20T12:26:19;4.80;;;2.93;;
3099;SDS011;1560;52.746;13.474;2023-08-20T12:28:47;2.90;;;2.70;;
3099;SDS011;1560;52.746;13.474;2023-08-20T12:31:16;3.00;;;2.63;;
3099;SDS011;1560;52.746;13.474;2023-08-20T12:36:21;5.40;;;2.37;;
3099;SDS011;1560;52.746;13.474;2023-08-20T12:38:49;2.80;;;2.33;;
3099;SDS011;1560;52.746;13.474;2023-08-20T12:41:19;3.63;;;2.50;;
3099;SDS011;1560;52.746;13.474;2023-08-20T12:43:48;3.20;;;2.47;;
3099;SDS011;1560;52.746;13.474;2023-08-20T12:46:17;2.97;;;1.90;;
3099;SDS011;1560;52.746;13.474;2023-08-20T12:48:46;2.50;;;2.00;;
3099;SDS011;1560;52.746;13.474;2023-08-20T12:51:16;3.53;;;2.90;;
3099;SDS011;1560;52.746;13.474;2023-08-20T12:53:54;2.80;;;2.33;;
3099;SDS011;1560;52.746;13.474;2023-08-20T12:56:23;2.53;;;1.70;;
3099;SDS011;1560;52.746;13.474;2023-08-20T12:58:52;2.07;;;1.87;;
3099;SDS011;1560;52.746;13.474;2023-08-20T13:01:29;2.33;;;1.87;;
3099;SDS011;1560;52.746;13.474;2023-08-20T13:03:58;4.20;;;2.67;;
3099;SDS011;1560;52.746;13.474;2023-08-20T13:06:28;3.40;;;1.80;;
3099;SDS011;1560;52.746;13.474;2023-08-20T13:08:57;4.13;;;1.43;;
3099;SDS011;1560;52.746;13.474;2023-08-20T13:11:35;2.83;;;1.33;;
3099;SDS011;1560;52.746;13.474;2023-08-20T13:14:07;2.47;;;1.63;;
3099;SDS011;1560;52.746;13.474;2023-08-20T13:16:36;3.40;;;1.70;;
3099;SDS011;1560;52.746;13.474;2023-08-20T13:19:07;2.50;;;1.57;;
3099;SDS011;1560;52.746;13.474;2023-08-20T13:21:45;2.40;;;1.60;;
3099;SDS011;1560;52.746;13.474;2023-08-20T13:24:13;4.37;;;1.60;;
3099;SDS011;1560;52.746;13.474;2023-08-20T13:26:42;3.20;;;1.57;;
3099;SDS011;1560;52.746;13.474;2023-08-20T13:31:47;5.03;;;1.70;;
3099;SDS011;1560;52.746;13.474;2023-08-20T13:34:17;3.20;;;1.77;;
3099;SDS011;1560;52.746;13.474;2023-08-20T13:36:45;3.50;;;1.47;;
3099;SDS011;1560;52.746;13.474;2023-08-20T13:39:14;2.90;;;2.07;;
3099;SDS011;1560;52.746;13.474;2023-08-20T13:41:46;3.23;;;1.80;;
3099;SDS011;1560;52.746;13.474;2023-08-20T13:44:23;5.13;;;1.63;;
3099;SDS011;1560;52.746;13.474;2023-08-20T13:46:51;1.87;;;1.43;;
3099;SDS011;1560;52.746;13.474;2023-08-20T13:49:20;2.13;;;1.40;;
3099;SDS011;1560;52.746;13.474;2023-08-20T13:51:49;2.60;;;1.70;;
3099;SDS011;1560;52.746;13.474;2023-08-20T13:54:17;4.93;;;2.00;;
3099;SDS011;1560;52.746;13.474;2023-08-20T13:56:46;2.17;;;1.97;;
3099;SDS011;1560;52.746;13.474;2023-08-20T13:59:14;3.93;;;1.90;;
3099;SDS011;1560;52.746;13.474;2023-08-20T14:01:43;3.10;;;1.87;;
3099;SDS011;1560;52.746;13.474;2023-08-20T14:04:11;3.23;;;1.93;;
3099;SDS011;1560;52.746;13.474;2023-08-20T14:06:40;3.07;;;1.90;;
3099;SDS011;1560;52.746;13.474;2023-08-20T14:09:09;3.10;;;1.73;;
3099;SDS011;1560;52.746;13.474;2023-08-20T14:11:38;2.93;;;2.00;;
3099;SDS011;1560;52.746;13.474;2023-08-20T14:14:06;2.13;;;1.63;;
3099;SDS011;1560;52.746;13.474;2023-08-20T14:16:35;3.30;;;1.83;;
3099;SDS011;1560;52.746;13.474;2023-08-20T14:19:04;5.60;;;2.60;;
3099;SDS011;1560;52.746;13.474;2023-08-20T14:21:41;2.80;;;1.73;;
3099;SDS011;1560;52.746;13.474;2023-08-20T14:24:09;3.43;;;2.20;;
3099;SDS011;1560;52.746;13.474;2023-08-20T14:26:38;4.53;;;2.00;;
3099;SDS011;1560;52.746;13.474;2023-08-20T14:29:06;2.87;;;2.20;;
3099;SDS011;1560;52.746;13.474;2023-08-20T14:31:35;4.30;;;1.90;;
3099;SDS011;1560;52.746;13.474;2023-08-20T14:36:40;2.83;;;2.10;;
3099;SDS011;1560;52.746;13.474;2023-08-20T14:39:08;3.83;;;1.70;;
3099;SDS011;1560;52.746;13.474;2023-08-20T14:41:37;5.50;;;1.97;;
3099;SDS011;1560;52.746;13.474;2023-08-20T14:44:06;5.67;;;2.03;;
3099;SDS011;1560;52.746;13.474;2023-08-20T14:46:34;5.97;;;2.27;;
3099;SDS011;1560;52.746;13.474;2023-08-20T14:51:40;2.77;;;1.67;;
3099;SDS011;1560;52.746;13.474;2023-08-20T14:54:09;3.23;;;1.57;;
3099;SDS011;1560;52.746;13.474;2023-08-20T14:56:37;4.97;;;1.93;;
3099;SDS011;1560;52.746;13.474;2023-08-20T14:59:06;4.27;;;1.83;;
3099;SDS011;1560;52.746;13.474;2023-08-20T15:01:43;2.50;;;2.10;;
3099;SDS011;1560;52.746;13.474;2023-08-20T15:04:12;3.00;;;1.67;;
3099;SDS011;1560;52.746;13.474;2023-08-20T15:06:40;2.87;;;1.63;;
3099;SDS011;1560;52.746;13.474;2023-08-20T15:09:09;3.43;;;1.80;;
3099;SDS011;1560;52.746;13.474;2023-08-20T15:11:39;3.10;;;1.80;;
3099;SDS011;1560;52.746;13.474;2023-08-20T15:14:16;2.20;;;1.67;;
3099;SDS011;1560;52.746;13.474;2023-08-20T15:16:45;3.90;;;1.83;;
3099;SDS011;1560;52.746;13.474;2023-08-20T15:19:14;3.20;;;2.47;;
3099;SDS011;1560;52.746;13.474;2023-08-20T15:21:43;3.00;;;1.60;;
3099;SDS011;1560;52.746;13.474;2023-08-20T15:26:47;2.33;;;1.50;;
3099;SDS011;1560;52.746;13.474;2023-08-20T15:29:16;3.73;;;1.97;;
3099;SDS011;1560;52.746;13.474;2023-08-20T15:31:45;3.80;;;2.03;;
3099;SDS011;1560;52.746;13.474;2023-08-20T15:34:15;2.67;;;1.73;;
3099;SDS011;1560;52.746;13.474;2023-08-20T15:36:47;4.07;;;2.00;;
3099;SDS011;1560;52.746;13.474;2023-08-20T15:39:17;3.40;;;1.87;;
3099;SDS011;1560;52.746;13.474;2023-08-20T15:41:54;3.10;;;1.67;;
3099;SDS011;1560;52.746;13.474;2023-08-20T15:44:22;3.40;;;1.80;;
3099;SDS011;1560;52.746;13.474;2023-08-20T15:46:51;4.37;;;1.90;;
3099;SDS011;1560;52.746;13.474;2023-08-20T15:49:19;5.73;;;2.23;;
3099;SDS011;1560;52.746;13.474;2023-08-20T15:51:48;3.93;;;1.90;;
3099;SDS011;1560;52.746;13.474;2023-08-20T15:54:17;3.90;;;2.23;;
3099;SDS011;1560;52.746;13.474;2023-08-20T15:56:54;3.43;;;1.53;;
3099;SDS011;1560;52.746;13.474;2023-08-20T16:01:59;2.90;;;1.70;;
3099;SDS011;1560;52.746;13.474;2023-08-20T16:04:27;3.87;;;1.90;;
3099;SDS011;1560;52.746;13.474;2023-08-20T16:06:56;3.83;;;1.97;;
3099;SDS011;1560;52.746;13.474;2023-08-20T16:09:25;4.13;;;1.83;;
3099;SDS011;1560;52.746;13.474;2023-08-20T16:11:53;3.90;;;2.10;;
3099;SDS011;1560;52.746;13.474;2023-08-20T16:14:22;2.00;;;1.63;;
3099;SDS011;1560;52.746;13.474;2023-08-20T16:16:51;2.87;;;1.40;;
3099;SDS011;1560;52.746;13.474;2023-08-20T16:19:20;2.00;;;1.67;;
3099;SDS011;1560;52.746;13.474;2023-08-20T16:21:49;2.00;;;1.47;;
3099;SDS011;1560;52.746;13.474;2023-08-20T16:26:54;4.47;;;2.00;;
3099;SDS011;1560;52.746;13.474;2023-08-20T16:29:22;4.50;;;1.73;;
3099;SDS011;1560;52.746;13.474;2023-08-20T16:31:51;3.93;;;2.13;;